createdAt,value
2022-11-12T00:00:45.718Z,4.09
2022-11-12T00:06:06.000Z,4.09
2022-11-12T00:11:26.438Z,4.15
2022-11-12T00:16:46.635Z,4.18
2022-11-12T00:22:07.167Z,4.27
2022-11-12T00:27:27.535Z,4.32
2022-11-12T00:32:48.071Z,4.21
2022-11-12T00:38:08.106Z,4.22
2022-11-12T00:43:29.291Z,4.22
2022-11-12T00:48:49.545Z,4.22
2022-11-12T00:54:09.951Z,4.20
2022-11-12T00:59:30.319Z,4.28
2022-11-12T01:04:50.628Z,4.38
2022-11-12T01:10:11.673Z,4.45
2022-11-12T01:15:31.903Z,4.53
2022-11-12T01:20:52.077Z,4.53
2022-11-12T01:26:14.924Z,4.50
2022-11-12T01:31:38.410Z,4.50
2022-11-12T01:36:58.987Z,4.52
2022-11-12T01:42:19.078Z,4.78
2022-11-12T01:47:39.340Z,4.95
2022-11-12T01:53:08.742Z,4.85
2022-11-12T01:58:32.145Z,4.76
2022-11-12T02:03:52.637Z,4.70
2022-11-12T02:09:13.956Z,4.61
2022-11-12T02:14:34.910Z,4.59
2022-11-12T02:19:59.326Z,4.54
2022-11-12T02:25:23.541Z,4.38
2022-11-12T02:30:47.844Z,4.31
2022-11-12T02:36:08.184Z,4.11
2022-11-12T02:41:28.674Z,4.01
2022-11-12T02:46:49.106Z,3.95
2022-11-12T02:52:09.602Z,3.92
2022-11-12T02:57:37.695Z,3.78
2022-11-12T03:03:01.440Z,3.85
2022-11-12T03:08:21.908Z,3.87
2022-11-12T03:13:42.887Z,3.77
2022-11-12T03:19:03.136Z,3.76
2022-11-12T03:24:23.323Z,3.71
2022-11-12T03:29:44.056Z,3.55
2022-11-12T03:35:04.585Z,3.50
2022-11-12T03:40:25.645Z,3.51
2022-11-12T03:45:46.580Z,3.49
2022-11-12T03:51:07.054Z,3.51
2022-11-12T03:56:27.371Z,3.38
2022-11-12T04:01:47.881Z,3.34
2022-11-12T04:07:27.310Z,3.33
2022-11-12T04:13:05.952Z,3.28
2022-11-12T04:18:44.873Z,3.08
2022-11-12T04:24:05.444Z,2.94
2022-11-12T04:29:44.248Z,2.84
2022-11-12T04:35:07.489Z,2.81
2022-11-12T04:40:46.165Z,2.58
2022-11-12T04:46:06.233Z,2.54
2022-11-12T04:51:44.976Z,2.48
2022-11-12T04:57:05.073Z,2.33
2022-11-12T05:02:25.290Z,2.30
2022-11-12T05:07:45.486Z,2.21
2022-11-12T05:13:05.891Z,2.07
2022-11-12T05:18:26.646Z,1.94
2022-11-12T05:23:47.239Z,1.90
2022-11-12T05:29:08.993Z,1.76
2022-11-12T05:34:30.095Z,1.82
2022-11-12T05:39:50.133Z,1.94
2022-11-12T05:45:10.594Z,1.89
2022-11-12T05:50:39.746Z,1.83
2022-11-12T05:56:11.631Z,1.72
2022-11-12T06:01:32.421Z,1.67
2022-11-12T06:06:52.465Z,1.42
2022-11-12T06:12:12.910Z,1.34
2022-11-12T06:17:33.177Z,1.34
2022-11-12T06:22:53.636Z,1.31
2022-11-12T06:28:14.067Z,1.29
2022-11-12T06:33:34.600Z,1.15
2022-11-12T06:38:54.931Z,1.19
2022-11-12T06:44:20.779Z,1.17
2022-11-12T06:49:42.268Z,1.12
2022-11-12T06:55:02.584Z,1.15
2022-11-12T07:00:24.265Z,1.24
2022-11-12T07:05:44.471Z,1.32
2022-11-12T07:11:05.695Z,1.49
2022-11-12T07:16:26.070Z,1.56
2022-11-12T07:21:46.528Z,1.51
2022-11-12T07:27:06.963Z,1.56
2022-11-12T07:32:27.260Z,1.79
2022-11-12T07:37:47.872Z,2.07
2022-11-12T07:43:07.979Z,2.43
2022-11-12T07:48:31.985Z,2.78
2022-11-12T07:53:58.909Z,3.03
2022-11-12T07:59:19.542Z,3.47
2022-11-12T08:04:39.991Z,4.00
2022-11-12T08:10:00.386Z,4.61
2022-11-12T08:15:21.071Z,5.00
2022-11-12T08:20:41.205Z,5.53
2022-11-12T08:26:03.677Z,6.09
2022-11-12T08:31:24.062Z,6.53
2022-11-12T08:36:44.361Z,6.99
2022-11-12T08:42:04.951Z,7.35
2022-11-12T08:47:25.498Z,7.69
2022-11-12T08:52:46.003Z,8.07
2022-11-12T08:58:06.941Z,8.34
2022-11-12T09:03:27.137Z,8.64
2022-11-12T09:08:47.856Z,9.01
2022-11-12T09:14:08.287Z,9.55
2022-11-12T09:19:28.625Z,10.06
2022-11-12T09:24:49.144Z,10.55
2022-11-12T09:30:09.981Z,11.02
2022-11-12T09:35:30.862Z,11.50
2022-11-12T09:40:51.042Z,11.91
2022-11-12T09:46:30.089Z,11.95
2022-11-12T09:52:17.026Z,12.38
2022-11-12T09:57:37.700Z,12.59
2022-11-12T10:03:21.848Z,12.88
2022-11-12T10:08:58.571Z,13.18
2022-11-12T10:14:49.574Z,13.51
2022-11-12T10:20:26.114Z,13.69
2022-11-12T10:25:50.415Z,13.92
2022-11-12T10:31:17.121Z,14.24
2022-11-12T10:36:38.937Z,14.59
2022-11-12T10:42:08.771Z,15.69
2022-11-12T10:47:42.973Z,16.50
2022-11-12T10:53:10.307Z,18.26
2022-11-12T10:58:30.696Z,19.83
2022-11-12T11:03:58.005Z,21.73
2022-11-12T11:09:21.664Z,23.15
2022-11-12T11:14:44.615Z,22.71
2022-11-12T11:20:16.109Z,20.93
2022-11-12T11:25:37.957Z,17.78
2022-11-12T11:31:24.144Z,17.32
2022-11-12T11:37:00.128Z,17.20
2022-11-12T11:43:03.884Z,16.60
2022-11-12T11:48:48.908Z,17.80
2022-11-12T11:54:15.413Z,19.31
2022-11-12T12:00:11.010Z,20.32
2022-11-12T12:05:46.244Z,22.25
2022-11-12T12:11:15.149Z,22.06
2022-11-12T12:16:43.865Z,23.31
2022-11-12T12:22:09.980Z,24.60
2022-11-12T12:27:37.928Z,26.65
2022-11-12T12:33:28.687Z,25.81
2022-11-12T12:38:55.418Z,25.32
2022-11-12T12:44:15.910Z,25.27
2022-11-12T12:49:37.570Z,26.20
2022-11-12T12:54:58.317Z,23.27
2022-11-12T13:00:41.196Z,22.67
2022-11-12T13:06:23.644Z,20.88
2022-11-12T13:12:02.523Z,16.76
2022-11-12T13:17:46.136Z,15.81
2022-11-12T13:23:10.893Z,15.22
2022-11-12T13:28:30.964Z,14.87
2022-11-12T13:33:51.468Z,14.60
2022-11-12T13:39:15.655Z,14.15
2022-11-12T13:44:35.921Z,13.78
2022-11-12T13:50:01.281Z,13.48
2022-11-12T13:55:22.815Z,13.22
2022-11-12T14:00:53.023Z,13.01
2022-11-12T14:06:37.195Z,12.82
2022-11-12T14:12:09.805Z,12.63
2022-11-12T14:18:04.348Z,12.28
2022-11-12T14:23:26.070Z,11.98
2022-11-12T14:28:46.385Z,11.64
2022-11-12T14:34:20.982Z,11.37
2022-11-12T14:39:43.141Z,11.01
2022-11-12T14:45:03.666Z,10.63
2022-11-12T14:50:34.558Z,10.23
2022-11-12T14:55:59.390Z,10.04
2022-11-12T15:07:32.892Z,9.55
2022-11-12T15:12:53.029Z,9.04
2022-11-12T15:18:33.861Z,8.59
2022-11-12T15:24:22.097Z,8.37
2022-11-12T15:29:42.345Z,8.08
2022-11-12T15:35:02.837Z,7.57
2022-11-12T15:40:23.386Z,7.09
2022-11-12T15:45:43.718Z,6.78
2022-11-12T15:51:04.171Z,6.43
2022-11-12T15:56:24.457Z,6.27
2022-11-12T16:01:44.939Z,6.03
2022-11-12T16:07:07.873Z,5.90
2022-11-12T16:12:29.456Z,5.78
2022-11-12T16:17:50.036Z,5.72
2022-11-12T16:23:10.387Z,5.54
2022-11-12T16:28:30.890Z,5.26
2022-11-12T16:33:51.265Z,5.01
2022-11-12T16:39:13.530Z,4.77
2022-11-12T16:44:33.595Z,4.70
2022-11-12T16:49:54.078Z,4.55
2022-11-12T16:55:14.661Z,4.49
2022-11-12T17:00:35.264Z,4.33
2022-11-12T17:05:55.668Z,4.22
2022-11-12T17:11:16.385Z,4.15
2022-11-12T17:16:36.471Z,4.04
2022-11-12T17:21:56.869Z,4.05
2022-11-12T17:27:17.131Z,3.94
2022-11-12T17:32:37.672Z,3.85
2022-11-12T17:37:58.042Z,3.72
2022-11-12T17:43:18.473Z,3.68
2022-11-12T17:48:38.817Z,3.73
2022-11-12T17:53:59.135Z,3.65
2022-11-12T17:59:19.348Z,3.57
2022-11-12T18:04:39.729Z,3.50
2022-11-12T18:10:00.186Z,3.48
2022-11-12T18:15:20.598Z,3.40
2022-11-12T18:20:42.542Z,3.28
2022-11-12T18:26:02.734Z,3.22
2022-11-12T18:31:25.225Z,3.11
2022-11-12T18:36:45.382Z,3.09
2022-11-12T18:42:06.061Z,3.03
2022-11-12T18:47:26.643Z,2.84
2022-11-12T18:52:47.014Z,2.73
2022-11-12T18:58:07.535Z,2.70
2022-11-12T19:03:28.120Z,2.64
2022-11-12T19:08:49.144Z,2.60
2022-11-12T19:14:09.904Z,2.44
2022-11-12T19:19:30.413Z,2.29
2022-11-12T19:24:50.719Z,2.13
2022-11-12T19:30:11.425Z,2.04
2022-11-12T19:35:33.508Z,1.91
2022-11-12T19:40:53.623Z,1.75
2022-11-12T19:46:14.927Z,1.65
2022-11-12T19:51:35.532Z,1.59
2022-11-12T19:56:56.244Z,1.46
2022-11-12T20:02:16.610Z,1.44
2022-11-12T20:07:37.213Z,1.39
2022-11-12T20:12:57.689Z,1.38
2022-11-12T20:18:18.113Z,1.21
2022-11-12T20:23:40.610Z,1.20
2022-11-12T20:29:00.629Z,1.16
2022-11-12T20:34:21.342Z,1.06
2022-11-12T20:39:41.629Z,1.01
2022-11-12T20:45:02.179Z,1.00
2022-11-12T20:50:22.901Z,1.07
2022-11-12T20:55:43.233Z,0.98
2022-11-12T21:01:05.200Z,0.82
2022-11-12T21:06:28.536Z,0.70
2022-11-12T21:11:48.797Z,0.61
2022-11-12T21:17:09.396Z,0.70
2022-11-12T21:22:29.788Z,0.60
2022-11-12T21:27:50.229Z,0.55
2022-11-12T21:33:12.170Z,0.39
2022-11-12T21:38:32.976Z,0.39
2022-11-12T21:43:53.986Z,0.24
2022-11-12T21:49:14.167Z,0.13
2022-11-12T21:54:35.527Z,0.06
2022-11-12T22:00:08.221Z,0.05
2022-11-12T22:05:37.166Z,0.05
2022-11-12T22:11:11.167Z,-0.05
2022-11-12T22:16:31.623Z,-0.14
2022-11-12T22:21:51.721Z,-0.12
2022-11-12T22:27:12.157Z,-0.12
2022-11-12T22:32:32.376Z,-0.17
2022-11-12T22:37:54.540Z,-0.31
2022-11-12T22:43:14.720Z,-0.33
2022-11-12T22:48:35.625Z,-0.36
2022-11-12T22:54:00.505Z,-0.39
2022-11-12T22:59:20.895Z,-0.48
2022-11-12T23:04:41.305Z,-0.45
2022-11-12T23:10:01.557Z,-0.44
2022-11-12T23:15:21.752Z,-0.43
2022-11-12T23:20:42.053Z,-0.54
2022-11-12T23:26:09.160Z,-0.57
2022-11-12T23:31:31.065Z,-0.56
2022-11-12T23:36:51.067Z,-0.56
2022-11-12T23:42:11.481Z,-0.59
2022-11-12T23:47:31.982Z,-0.73
2022-11-12T23:52:52.239Z,-0.74
2022-11-12T23:58:12.660Z,-0.81
